Flight Track Log - Related Links

Times and Time Zones

All times are in EDT time to prevent confusion due to time zone crossing. See the ASQ5685 flight status page for this flight to view local times or setup timezone preferences in your user account.

Time Position Orientation Groundspeed Altitude Reporting Facility
EDT Latitude Longitude Course Direction KTS MPH feet Rate Location/Type
Sun 02:38:39 PM 44.5042 -73.2814 195° South 202 232 5,300  Level Boston Center
Sun 02:39:39 PM 44.4289 -73.2978 189° South 220 253 8,200 2,750 Climbing Boston Center
Sun 02:40:00 PM 44.1191 -73.2791 196° South  Level FlightAware Approximate
Sun 02:40:39 PM 44.3558 -73.3169 191° South 275 316 10,800  Level Boston Center
Sun 02:41:00 PM 44.0324 -73.3138 196° South  Level FlightAware Approximate
Sun 02:41:39 PM 44.2681 -73.3447 193° South 314 361 12,400  Level Boston Center
Sun 02:42:00 PM 43.9457 -73.3484 196° South  Level FlightAware Approximate
Sun 02:42:39 PM 44.1700 -73.3750 192° South 354 407 14,000  Level Boston Center
Sun 02:43:00 PM 43.8588 -73.3819 195° South  Level FlightAware Approximate
Sun 02:43:51 PM 44.0656 -73.4081 193° South 380 437 15,600  Level Boston Center
Sun 02:44:00 PM 43.7717 -73.4141 195° South  Level FlightAware Approximate
Sun 02:44:51 PM 43.9256 -73.4519 193° South 392 451 17,700  Level Boston Center
Sun 02:45:51 PM 43.8147 -73.4844 192° South 402 463 18,600 1,100 Climbing Boston Center
Sun 02:46:51 PM 43.7042 -73.5169 192° South 402 463 19,900 1,300 Climbing Boston Center
Sun 02:47:51 PM 43.5933 -73.5494 192° South 407 468 21,200 1,200 Climbing Boston Center
Sun 02:48:51 PM 43.4825 -73.5817 192° South 412 474 22,300 1,100 Climbing Boston Center
Sun 02:49:51 PM 43.3717 -73.6169 193° South 412 474 23,400 950 Climbing Boston Center
Sun 02:50:51 PM 43.2608 -73.6489 192° South 412 474 24,200 750 Climbing Boston Center
Sun 02:51:51 PM 43.1481 -73.6808 192° South 412 474 24,900 700 Climbing Boston Center
Sun 02:52:51 PM 43.0372 -73.7183 194° South 412 474 25,600 700 Climbing Boston Center
Sun 02:53:51 PM 42.9242 -73.7528 193° South 412 474 26,300 700 Climbing Boston Center
Sun 02:54:51 PM 42.8133 -73.7844 192° South 412 474 27,000 600 Climbing Boston Center
Sun 02:55:51 PM 42.7067 -73.8244 195° South 412 474 27,500 500 Climbing Boston Center
Sun 02:56:51 PM 42.5997 -73.8700 197° South 412 474 28,000 250 Climbing Boston Center
Sun 02:57:51 PM 42.4969 -73.9183 199° South 406 467 28,000  Level Boston Center
Sun 02:58:51 PM 42.3881 -73.9692 199° South 406 467 28,000  Level Boston Center
Sun 02:59:51 PM 42.2789 -74.0172 198° South 411 473 28,000  Level Boston Center
Sun 03:00:51 PM 42.1661 -74.0394 188° South 411 473 28,000  Level Boston Center
Sun 03:01:51 PM 42.0492 -74.0478 183° South 416 479 28,000  Level Boston Center
Sun 03:02:51 PM 41.9367 -74.0531 182° South 416 479 28,000  Level Boston Center
Sun 03:03:51 PM 41.8303 -74.0589 182° South 403 464 28,000  Level Boston Center
Sun 03:04:51 PM 41.7531 -74.0625 182° South 386 444 28,000  Level Boston Center
Sun 03:06:28 PM 41.5792 -74.0186 169° South 366 421 28,000  Level New York Center
Sun 03:07:28 PM 41.4853 -74.0278 184° South 348 400 28,000  Level New York Center
Sun 03:08:29 PM 41.3867 -74.0533 191° South 349 402 28,000  Level New York Center
Sun 03:09:29 PM 41.3114 -74.1381 220° Southwest 338 389 28,000  Level New York Center
Sun 03:10:30 PM 41.2297 -74.2250 219° Southwest 357 411 28,000  Level New York Center
Sun 03:11:28 PM 41.1522 -74.3119 220° Southwest 373 429 28,000  Level New York Center
Sun 03:12:28 PM 41.0703 -74.4014 219° Southwest 378 435 28,000  Level New York Center
Sun 03:13:29 PM 40.9906 -74.4906 220° Southwest 378 435 28,000  Level New York Center
Sun 03:14:27 PM 40.9147 -74.5822 222° Southwest 378 435 28,000  Level New York Center
Sun 03:15:28 PM 40.9022 -74.7053 262° West 356 410 28,000  Level New York Center
Sun 03:16:28 PM 41.0053 -74.7442 344° North 248 285 28,000  Level New York Center
Sun 03:17:28 PM 41.0800 -74.6247 50° Northeast 242 278 28,000  Level New York Center
Sun 03:18:29 PM 41.0261 -74.4869 117° Southeast 245 282 28,000  Level New York Center
Sun 03:19:29 PM 40.9458 -74.5208 198° South 179 206 28,000  Level New York Center
Sun 03:20:27 PM 40.8992 -74.6117 236° Southwest 211 243 28,000  Level New York Center
Sun 03:21:28 PM 40.8667 -74.7114 247° West 253 291 28,000  Level New York Center
Sun 03:22:29 PM 40.8361 -74.8167 249° West 281 323 28,000  Level New York Center
Sun 03:23:29 PM 40.8058 -74.9108 247° West 293 337 28,000 -248 Level New York Center
Sun 03:24:30 PM 40.7750 -75.0131 248° West 299 344 27,500 -763 Descending New York Center
Sun 03:25:27 PM 40.7419 -75.1206 248° West 309 356 26,500 -1,026 Descending New York Center
Sun 03:26:27 PM 40.6903 -75.2211 236° Southwest 314 361 25,500 -744 Descending New York Center
Sun 03:27:28 PM 40.6319 -75.3294 235° Southwest 341 392 25,000 -595 Descending New York Center
Sun 03:28:28 PM 40.5753 -75.4433 237° Southwest 363 418 24,300 -843 Descending New York Center
Sun 03:29:29 PM 40.5167 -75.5567 236° Southwest 377 434 23,300 -992 Descending New York Center
Sun 03:30:29 PM 40.4514 -75.6722 233° Southwest 389 448 22,300 -1,017 Descending New York Center
Sun 03:31:27 PM 40.3900 -75.7931 236° Southwest 394 453 21,300 -958 Descending New York Center
Sun 03:32:28 PM 40.3206 -75.9106 232° Southwest 401 461 20,400 -645 Descending New York Center
Sun 03:33:28 PM 40.2589 -76.0311 236° Southwest 408 470 20,000 -200 Descending New York Center
Sun 03:34:28 PM 40.1928 -76.1539 235° Southwest 408 470 20,000  Level New York Center
Sun 03:35:29 PM 40.1336 -76.2633 235° Southwest 414 476 20,000  Level New York Center
Sun 03:36:29 PM 40.0736 -76.3861 237° Southwest 414 476 20,000 -604 Level New York Center
Sun 03:38:08 PM 39.9667 -76.6167 239° Southwest 409 471 18,400 -750 Descending Potomac TRACON
Sun 03:39:09 PM 39.9167 -76.7333 241° Southwest 399 459 18,000 -694 Descending Potomac TRACON
Sun 03:40:09 PM 39.8667 -76.8500 241° Southwest 393 452 17,000 -992 Descending Potomac TRACON
Sun 03:41:10 PM 39.8000 -76.9667 233° Southwest 389 448 16,000 -1,091 Descending Potomac TRACON
Sun 03:42:10 PM 39.7500 -77.1000 244° Southwest 382 440 14,800 -1,800 Descending Potomac TRACON
Sun 03:43:10 PM 39.6833 -77.2167 233° Southwest 376 433 12,400 -2,281 Descending Potomac TRACON
Sun 03:44:11 PM 39.6000 -77.2833 212° Southwest 331 381 10,200 -1,770 Descending Potomac TRACON
Sun 03:45:12 PM 39.5333 -77.3167 201° Southwest 283 326 8,800 -1,488 Descending Potomac TRACON
Sun 03:46:12 PM 39.4667 -77.3500 201° Southwest 273 314 7,200 -893 Descending Potomac TRACON
Sun 03:47:13 PM 39.3833 -77.3667 189° South 274 315 7,000 -694 Descending Potomac TRACON
Sun 03:48:13 PM 39.3167 -77.3667 180° South 272 313 5,800 -1,050 Descending Potomac TRACON
Sun 03:49:13 PM 39.2333 -77.3667 180° South 266 306 4,900 -843 Descending Potomac TRACON
Sun 03:50:14 PM 39.1667 -77.3500 169° South 268 308 4,100 -397 Descending Potomac TRACON
Sun 03:51:14 PM 39.0833 -77.3500 180° South 272 313 4,100  Level Potomac TRACON
Sun 03:52:15 PM 39.0000 -77.3500 180° South 263 303 4,100  Level Potomac TRACON
Sun 03:53:15 PM 38.9333 -77.3500 180° South 264 304 4,100 -347 Level Potomac TRACON
Sun 03:54:16 PM 38.8667 -77.3500 180° South 259 298 3,400 -689 Descending Potomac TRACON

Login

Don't have an account? Register now (free) for customized features, flight alerts, and more!